createdAt,value
2022-10-20T00:05:26.481Z,87
2022-10-20T00:08:26.488Z,87
2022-10-20T00:11:26.482Z,87
2022-10-20T00:14:26.459Z,87
2022-10-20T00:17:26.459Z,87
2022-10-20T00:23:26.452Z,87
2022-10-20T00:26:26.479Z,87
2022-10-20T00:29:26.455Z,87
2022-10-20T00:32:26.459Z,87
2022-10-20T00:35:26.471Z,87
2022-10-20T00:38:26.476Z,87
2022-10-20T00:41:26.480Z,87
2022-10-20T00:44:26.458Z,87
2022-10-20T00:47:26.461Z,87
2022-10-20T00:50:26.475Z,87
2022-10-20T00:53:26.485Z,87
2022-10-20T00:56:26.476Z,87
2022-10-20T00:59:26.468Z,87
2022-10-20T01:02:26.464Z,87
2022-10-20T01:05:26.474Z,87
2022-10-20T01:08:26.498Z,87
2022-10-20T01:11:26.486Z,87
2022-10-20T01:14:26.467Z,87
2022-10-20T01:17:26.475Z,87
2022-10-20T01:20:26.481Z,87
2022-10-20T01:23:26.465Z,87
2022-10-20T01:26:26.483Z,87
2022-10-20T01:29:26.471Z,87
2022-10-20T01:32:26.482Z,87
2022-10-20T01:35:26.482Z,87
2022-10-20T01:38:26.471Z,87
2022-10-20T01:41:26.484Z,87
2022-10-20T01:44:26.467Z,87
2022-10-20T01:47:26.504Z,87
2022-10-20T01:50:26.504Z,87
2022-10-20T01:53:26.503Z,87
2022-10-20T01:56:26.518Z,87
2022-10-20T01:59:26.507Z,87
2022-10-20T02:02:26.514Z,87
2022-10-20T02:05:26.508Z,87
2022-10-20T02:08:26.522Z,87
2022-10-20T02:11:26.516Z,87
2022-10-20T02:14:26.507Z,87
2022-10-20T02:17:26.513Z,87
2022-10-20T02:20:26.505Z,87
2022-10-20T02:23:26.510Z,87
2022-10-20T02:26:26.536Z,87
2022-10-20T02:29:26.509Z,87
2022-10-20T02:32:26.514Z,87
2022-10-20T02:35:26.517Z,87
2022-10-20T02:38:26.502Z,87
2022-10-20T02:41:26.536Z,87
2022-10-20T02:44:26.513Z,87
2022-10-20T02:47:26.525Z,87
2022-10-20T02:50:26.528Z,87
2022-10-20T02:53:26.503Z,87
2022-10-20T02:56:27.677Z,87
2022-10-20T02:59:26.513Z,87
2022-10-20T03:02:26.504Z,87
2022-10-20T03:05:26.541Z,87
2022-10-20T03:08:26.544Z,87
2022-10-20T03:11:26.525Z,87
2022-10-20T03:14:26.515Z,87
2022-10-20T03:17:26.528Z,87
2022-10-20T03:20:26.527Z,87
2022-10-20T03:23:26.524Z,87
2022-10-20T03:26:26.526Z,87
2022-10-20T03:29:26.520Z,87
2022-10-20T03:32:26.508Z,87
2022-10-20T03:35:26.534Z,87
2022-10-20T03:38:26.512Z,87
2022-10-20T03:41:26.534Z,87
2022-10-20T03:44:26.535Z,87
2022-10-20T03:47:26.515Z,87
2022-10-20T03:50:26.530Z,87
2022-10-20T03:53:26.519Z,87
2022-10-20T03:56:26.541Z,87
2022-10-20T03:59:27.996Z,87
2022-10-20T04:02:26.514Z,87
2022-10-20T04:05:26.533Z,87
2022-10-20T04:08:26.595Z,87
2022-10-20T04:11:26.542Z,87
2022-10-20T04:14:26.541Z,87
2022-10-20T04:17:26.554Z,87
2022-10-20T04:20:26.541Z,87
2022-10-20T04:23:26.536Z,86
2022-10-20T04:26:26.546Z,86
2022-10-20T04:29:26.560Z,86
2022-10-20T04:32:26.539Z,86
2022-10-20T04:35:26.544Z,86
2022-10-20T04:38:26.524Z,86
2022-10-20T04:41:26.570Z,86
2022-10-20T04:44:26.531Z,86
2022-10-20T04:47:26.528Z,86
2022-10-20T04:50:26.552Z,86
2022-10-20T04:53:26.532Z,86
2022-10-20T04:56:26.554Z,86
2022-10-20T04:59:26.531Z,86
2022-10-20T05:05:26.539Z,86
2022-10-20T05:08:26.567Z,86
2022-10-20T05:11:26.551Z,86
2022-10-20T05:17:26.534Z,86
2022-10-20T05:20:26.527Z,86
2022-10-20T05:23:26.536Z,86
2022-10-20T05:26:52.406Z,82
2022-10-20T05:29:52.409Z,82
2022-10-20T05:32:52.391Z,82
2022-10-20T05:35:52.395Z,82
2022-10-20T05:38:52.404Z,82
2022-10-20T05:41:52.389Z,82
2022-10-20T05:44:52.424Z,82.5
2022-10-20T05:47:52.401Z,82.5
2022-10-20T05:50:52.401Z,82.5
2022-10-20T05:53:52.447Z,82.5
2022-10-20T05:56:52.397Z,82.5
2022-10-20T06:02:52.396Z,82.5
2022-10-20T06:05:52.392Z,82.5
2022-10-20T06:08:52.468Z,82
2022-10-20T06:11:52.423Z,82
2022-10-20T06:14:52.402Z,82
2022-10-20T06:17:52.427Z,82
2022-10-20T06:20:52.413Z,82
2022-10-20T06:23:52.432Z,82
2022-10-20T06:26:52.409Z,86
2022-10-20T06:29:52.419Z,86
2022-10-20T06:32:52.418Z,86
2022-10-20T06:35:52.405Z,86
2022-10-20T06:38:52.420Z,86
2022-10-20T06:41:52.423Z,86
2022-10-20T06:44:52.400Z,86
2022-10-20T06:47:52.417Z,86
2022-10-20T06:50:52.401Z,86
2022-10-20T06:53:52.430Z,86
2022-10-20T06:56:52.496Z,86
2022-10-20T06:59:52.428Z,86
2022-10-20T07:02:52.433Z,86
2022-10-20T07:05:52.433Z,86
2022-10-20T07:08:52.522Z,86
2022-10-20T07:11:52.463Z,86
2022-10-20T07:14:52.427Z,86
2022-10-20T07:17:52.428Z,86
2022-10-20T07:20:52.430Z,86
2022-10-20T07:23:52.443Z,86
2022-10-20T07:26:52.424Z,86
2022-10-20T07:29:52.434Z,86
2022-10-20T07:32:52.432Z,86
2022-10-20T07:35:52.436Z,86
2022-10-20T07:38:52.591Z,86
2022-10-20T07:41:52.446Z,86
2022-10-20T07:44:52.428Z,86
2022-10-20T07:47:52.431Z,86
2022-10-20T07:50:52.433Z,86
2022-10-20T07:53:53.836Z,86
2022-10-20T07:56:52.455Z,86
2022-10-20T07:59:52.461Z,86
2022-10-20T08:02:52.470Z,86
2022-10-20T08:05:52.442Z,86
2022-10-20T08:08:52.561Z,86
2022-10-20T08:11:54.376Z,86
2022-10-20T08:14:52.479Z,86
2022-10-20T08:17:52.438Z,85
2022-10-20T08:20:52.497Z,85
2022-10-20T08:23:52.466Z,85
2022-10-20T08:26:52.459Z,85
2022-10-20T08:29:59.829Z,85
2022-10-20T08:32:52.466Z,85
2022-10-20T08:35:52.468Z,85
2022-10-20T08:38:52.480Z,85
2022-10-20T08:42:07.327Z,85
2022-10-20T08:44:52.447Z,85
2022-10-20T08:47:52.466Z,85
2022-10-20T08:50:52.450Z,85
2022-10-20T08:53:52.478Z,85
2022-10-20T08:56:52.453Z,85
2022-10-20T08:59:52.465Z,85
2022-10-20T09:02:52.450Z,85
2022-10-20T09:05:52.482Z,85
2022-10-20T09:08:52.551Z,85
2022-10-20T09:11:52.453Z,85
2022-10-20T09:14:52.455Z,85
2022-10-20T09:17:52.467Z,85
2022-10-20T09:20:52.469Z,85
2022-10-20T09:23:52.499Z,85
2022-10-20T09:26:58.504Z,85
2022-10-20T09:29:52.463Z,85
2022-10-20T09:32:52.485Z,85
2022-10-20T09:35:52.483Z,85
2022-10-20T09:38:52.503Z,85
2022-10-20T09:41:52.523Z,85
2022-10-20T09:44:52.470Z,85
2022-10-20T09:47:52.471Z,85
2022-10-20T09:50:52.485Z,85
2022-10-20T09:53:52.472Z,85
2022-10-20T09:56:52.471Z,85
2022-10-20T09:59:52.472Z,85
2022-10-20T10:02:52.472Z,85
2022-10-20T10:05:52.480Z,85
2022-10-20T10:08:52.538Z,85
2022-10-20T10:11:52.513Z,85
2022-10-20T10:14:52.461Z,85
2022-10-20T10:17:52.491Z,85
2022-10-20T10:20:52.471Z,85
2022-10-20T10:23:52.483Z,85
2022-10-20T10:26:52.490Z,85
2022-10-20T10:29:52.492Z,85
2022-10-20T10:32:52.491Z,85
2022-10-20T10:35:52.495Z,85
2022-10-20T10:38:52.491Z,85
2022-10-20T10:41:52.506Z,85
2022-10-20T10:44:52.505Z,85
2022-10-20T10:47:52.496Z,85
2022-10-20T10:50:52.487Z,85
2022-10-20T10:53:52.515Z,85
2022-10-20T10:56:52.472Z,85
2022-10-20T10:59:52.492Z,85
2022-10-20T11:02:52.493Z,85
2022-10-20T11:05:52.496Z,85
2022-10-20T11:08:52.563Z,85
2022-10-20T11:11:52.482Z,85
2022-10-20T11:14:52.492Z,85
2022-10-20T11:17:52.498Z,85
2022-10-20T11:20:52.495Z,85
2022-10-20T11:23:52.502Z,85
2022-10-20T11:26:52.493Z,85
2022-10-20T11:29:52.495Z,85
2022-10-20T11:32:52.475Z,85
2022-10-20T11:35:52.481Z,85
2022-10-20T11:38:52.502Z,85
2022-10-20T11:41:52.495Z,85
2022-10-20T11:44:52.468Z,85
2022-10-20T11:47:52.495Z,84
2022-10-20T11:50:52.529Z,84
2022-10-20T11:53:52.499Z,84
2022-10-20T11:56:52.496Z,84
2022-10-20T11:59:52.499Z,84
2022-10-20T12:02:52.490Z,84
2022-10-20T12:05:52.497Z,84
2022-10-20T12:08:52.556Z,84
2022-10-20T12:11:52.499Z,84
2022-10-20T12:14:52.541Z,84
2022-10-20T12:17:52.496Z,84
2022-10-20T12:20:52.517Z,84
2022-10-20T12:23:52.510Z,84
2022-10-20T12:26:52.523Z,84
2022-10-20T12:29:52.550Z,84
2022-10-20T12:32:52.547Z,85
2022-10-20T12:38:52.604Z,85
2022-10-20T12:41:52.552Z,85
2022-10-20T12:44:52.627Z,85
2022-10-20T12:47:52.503Z,85
2022-10-20T12:50:52.591Z,85
2022-10-20T12:53:52.517Z,85
2022-10-20T12:56:52.522Z,85
2022-10-20T12:59:52.502Z,85
2022-10-20T13:02:52.503Z,85
2022-10-20T13:05:52.504Z,85
2022-10-20T13:08:52.574Z,85
2022-10-20T13:11:52.502Z,85
2022-10-20T13:14:52.499Z,85
2022-10-20T13:17:52.501Z,85
2022-10-20T13:20:52.523Z,85
2022-10-20T13:23:52.502Z,85
2022-10-20T13:26:52.505Z,85
2022-10-20T13:29:52.502Z,85
2022-10-20T13:33:01.585Z,85
2022-10-20T13:35:52.525Z,85
2022-10-20T13:38:52.506Z,85
2022-10-20T13:41:52.506Z,85
2022-10-20T13:44:52.509Z,85
2022-10-20T13:47:57.513Z,85
2022-10-20T13:50:52.531Z,85
2022-10-20T13:53:52.508Z,85
2022-10-20T13:56:52.512Z,85
2022-10-20T13:59:52.528Z,85
2022-10-20T14:02:52.531Z,85
2022-10-20T14:05:52.516Z,85
2022-10-20T14:08:52.530Z,85
2022-10-20T14:11:52.532Z,85
2022-10-20T14:14:52.528Z,85
2022-10-20T14:17:55.534Z,85
2022-10-20T14:20:52.507Z,85
2022-10-20T14:23:52.520Z,85
2022-10-20T14:26:52.531Z,85
2022-10-20T14:29:52.536Z,85
2022-10-20T14:32:52.513Z,85
2022-10-20T14:35:52.522Z,85
2022-10-20T14:38:52.535Z,85
2022-10-20T14:41:52.508Z,85
2022-10-20T14:44:52.525Z,85
2022-10-20T14:47:52.516Z,85
2022-10-20T14:50:52.510Z,85
2022-10-20T14:53:52.521Z,85
2022-10-20T14:56:52.509Z,85
2022-10-20T14:59:52.533Z,86
2022-10-20T15:02:52.538Z,86
2022-10-20T15:05:52.560Z,86
2022-10-20T15:08:52.555Z,86
2022-10-20T15:11:52.526Z,86
2022-10-20T15:14:52.546Z,86
2022-10-20T15:17:52.529Z,86
2022-10-20T15:20:52.526Z,86
2022-10-20T15:23:52.540Z,86
2022-10-20T15:26:52.525Z,86
2022-10-20T15:29:52.538Z,86
2022-10-20T15:32:52.537Z,86
2022-10-20T15:35:52.537Z,86
2022-10-20T15:38:52.534Z,87
2022-10-20T15:41:53.129Z,87
2022-10-20T15:44:52.566Z,87
2022-10-20T15:47:52.535Z,87
2022-10-20T15:50:52.542Z,87
2022-10-20T15:53:52.527Z,87
2022-10-20T15:56:52.557Z,87
2022-10-20T15:59:52.556Z,87
2022-10-20T16:02:52.539Z,87
2022-10-20T16:05:52.537Z,87
2022-10-20T16:08:52.551Z,87
2022-10-20T16:11:52.527Z,87
2022-10-20T16:14:52.545Z,87
2022-10-20T16:17:52.540Z,87
2022-10-20T16:20:52.535Z,87
2022-10-20T16:23:52.533Z,87
2022-10-20T16:26:52.600Z,87
2022-10-20T16:29:52.540Z,87
2022-10-20T16:32:52.556Z,87
2022-10-20T16:35:52.531Z,87
2022-10-20T16:38:52.546Z,87
2022-10-20T16:41:52.541Z,88
2022-10-20T16:44:52.554Z,88
2022-10-20T16:47:52.536Z,88
2022-10-20T16:50:52.537Z,88
2022-10-20T16:53:52.552Z,88
2022-10-20T16:56:52.532Z,88
2022-10-20T16:59:52.561Z,88
2022-10-20T17:02:52.541Z,88
2022-10-20T17:05:52.536Z,88
2022-10-20T17:08:52.581Z,88
2022-10-20T17:11:52.551Z,88
2022-10-20T17:14:52.560Z,88
2022-10-20T17:17:52.542Z,88
2022-10-20T17:20:52.566Z,88
2022-10-20T17:23:52.534Z,88
2022-10-20T17:26:52.549Z,88
2022-10-20T17:29:52.557Z,88
2022-10-20T17:32:52.548Z,88
2022-10-20T17:35:52.546Z,88
2022-10-20T17:38:52.558Z,88
2022-10-20T17:41:52.548Z,88
2022-10-20T17:44:52.560Z,88
2022-10-20T17:47:52.545Z,88
2022-10-20T17:50:52.545Z,88
2022-10-20T17:53:52.571Z,88
2022-10-20T17:56:52.544Z,89
2022-10-20T17:59:53.449Z,89
2022-10-20T18:02:52.575Z,89
2022-10-20T18:05:52.563Z,89
2022-10-20T18:08:52.596Z,89
2022-10-20T18:11:52.562Z,89
2022-10-20T18:14:52.556Z,89
2022-10-20T18:17:52.562Z,89
2022-10-20T18:20:52.557Z,89
2022-10-20T18:23:52.567Z,89
2022-10-20T18:26:52.562Z,89
2022-10-20T18:29:52.566Z,89
2022-10-20T18:32:52.550Z,89
2022-10-20T18:35:52.558Z,89
2022-10-20T18:38:52.564Z,89
2022-10-20T18:41:52.577Z,89
2022-10-20T18:44:52.581Z,89
2022-10-20T18:47:52.578Z,89
2022-10-20T18:50:52.562Z,89
2022-10-20T18:53:52.573Z,89
2022-10-20T18:56:52.562Z,89
2022-10-20T18:59:52.575Z,89
2022-10-20T19:02:54.712Z,89
2022-10-20T19:05:52.566Z,89
2022-10-20T19:08:52.637Z,89
2022-10-20T19:11:52.579Z,89
2022-10-20T19:14:52.806Z,89
2022-10-20T19:17:52.576Z,89
2022-10-20T19:20:52.569Z,89
2022-10-20T19:23:52.584Z,89
2022-10-20T19:26:57.361Z,89
2022-10-20T19:29:52.580Z,89
2022-10-20T19:32:52.589Z,89
2022-10-20T19:35:52.575Z,89
2022-10-20T19:38:52.578Z,89
2022-10-20T19:44:52.583Z,90
2022-10-20T19:47:52.575Z,90
2022-10-20T19:50:52.590Z,90
2022-10-20T19:53:52.571Z,90
2022-10-20T19:56:52.595Z,90
2022-10-20T19:59:52.604Z,90
2022-10-20T20:02:52.583Z,90
2022-10-20T20:05:52.587Z,90
2022-10-20T20:08:52.646Z,90
2022-10-20T20:11:52.585Z,90
2022-10-20T20:14:52.593Z,90
2022-10-20T20:17:52.585Z,90
2022-10-20T20:20:52.597Z,90
2022-10-20T20:23:59.160Z,90
2022-10-20T20:26:52.592Z,90
2022-10-20T20:29:52.603Z,90
2022-10-20T20:32:54.301Z,90
2022-10-20T20:35:52.592Z,90
2022-10-20T20:38:53.746Z,90
2022-10-20T20:41:52.614Z,90
2022-10-20T20:44:52.599Z,90
2022-10-20T20:47:52.607Z,90
2022-10-20T20:50:52.603Z,90
2022-10-20T20:53:52.586Z,90
2022-10-20T20:56:52.607Z,90
2022-10-20T20:59:52.611Z,90
2022-10-20T21:02:52.606Z,90
2022-10-20T21:05:52.609Z,90
2022-10-20T21:08:52.624Z,90
2022-10-20T21:11:52.604Z,90
2022-10-20T21:14:52.608Z,90
2022-10-20T21:17:52.600Z,90
2022-10-20T21:20:52.607Z,90
2022-10-20T21:23:52.585Z,90
2022-10-20T21:26:52.599Z,90
2022-10-20T21:29:52.609Z,90
2022-10-20T21:32:52.605Z,90
2022-10-20T21:35:52.601Z,90
2022-10-20T21:38:52.599Z,90
2022-10-20T21:41:52.599Z,90
2022-10-20T21:44:52.611Z,90
2022-10-20T21:47:52.603Z,90
2022-10-20T21:50:52.610Z,90
2022-10-20T21:53:52.608Z,90
2022-10-20T21:56:52.605Z,90
2022-10-20T21:59:52.615Z,90
2022-10-20T22:02:52.607Z,90
2022-10-20T22:05:52.605Z,90
2022-10-20T22:08:52.635Z,90
2022-10-20T22:11:52.611Z,90
2022-10-20T22:14:52.611Z,90
2022-10-20T22:17:52.608Z,90
2022-10-20T22:20:52.605Z,90
2022-10-20T22:23:52.600Z,90
2022-10-20T22:26:52.595Z,90
2022-10-20T22:29:54.109Z,90
2022-10-20T22:32:52.608Z,90
2022-10-20T22:35:52.602Z,90
2022-10-20T22:38:52.608Z,90
2022-10-20T22:41:52.606Z,90
2022-10-20T22:44:52.630Z,90
2022-10-20T22:47:52.687Z,90
2022-10-20T22:50:52.615Z,90
2022-10-20T22:53:52.592Z,90
2022-10-20T22:56:52.611Z,90
2022-10-20T22:59:52.609Z,90
2022-10-20T23:02:52.609Z,90
2022-10-20T23:05:52.605Z,90
2022-10-20T23:08:52.673Z,90
2022-10-20T23:11:52.629Z,90
2022-10-20T23:14:52.615Z,90
2022-10-20T23:17:52.616Z,90
2022-10-20T23:20:53.725Z,90
2022-10-20T23:23:52.612Z,90
2022-10-20T23:26:52.615Z,90
2022-10-20T23:29:52.619Z,90
2022-10-20T23:32:52.617Z,90
2022-10-20T23:35:52.610Z,90
2022-10-20T23:38:52.611Z,90
2022-10-20T23:41:52.615Z,91
2022-10-20T23:47:52.610Z,91
2022-10-20T23:50:52.622Z,91
2022-10-20T23:53:52.615Z,91
2022-10-20T23:56:52.623Z,91
2022-10-20T23:59:52.611Z,91
